»·PEaware :: AAL861 KLAS-KPHX

AAL861 :: KLAS-KPHX

FLIGHT INFORMATION

Flight Status: Arrived
Operator:
American Airlines
More flights by this operator :: More flights under this callsign
Pilot: Alfredo R. (12181)
Aircraft: BOEING 737-800
(B738)
More flights by this aircraft type
Origin: KLAS McCarran Intl
United States
Destination: KPHX Phoenix Sky Harbor Intl
United States
More flights between these airports :: More routes between these airports
Route: PRFUM4 PRFUM WOTRO BRUSR1
File this flight plan on PilotEdge
Remarks:
Altitude:
(Current/Filed)
29,000ft
Speed:
(Current/Filed)
430kts
Departed: 28-Dec-17 10:09 PM
Arrived: 28-Dec-17 10:59 PM
Distance/Time
Traveled:
222nm/0:50
Distance/Time
To Go:
Arrived

Flight Plot

Page will automatically refresh every two minutes.

Flight plan parsing failed; only flown route is shown


Map Options




Map Legend


Flown Route
Filed Route
Departure Airport
Arrival Airport
Navaid (VOR, NDB)
Fix

Horizontal Profiles

Position Reports

Time Latitude Longitude Heading Altitude Ground
Speed
28-Dec-17 21:41 36.080588 -115.140600 134 2075ft 0kts
28-Dec-17 21:42 36.080588 -115.140600 134 2075ft 0kts
28-Dec-17 21:43 36.080588 -115.140600 134 2075ft 0kts
28-Dec-17 21:44 36.080588 -115.140600 134 2075ft 0kts
28-Dec-17 21:45 36.080588 -115.140600 134 2075ft 0kts
28-Dec-17 21:46 36.080588 -115.140600 134 2075ft 0kts
28-Dec-17 21:47 36.080588 -115.140600 134 2075ft 0kts
28-Dec-17 21:48 36.080588 -115.140600 134 2075ft 0kts
28-Dec-17 21:49 36.080588 -115.140600 134 2075ft 0kts
28-Dec-17 21:50 36.080588 -115.140600 134 2075ft 0kts
28-Dec-17 21:51 36.080588 -115.140600 134 2075ft 0kts
28-Dec-17 21:52 36.080588 -115.140600 134 2075ft 0kts
28-Dec-17 21:53 36.080588 -115.140600 134 2075ft 0kts
28-Dec-17 21:54 36.080588 -115.140600 134 2075ft 0kts
28-Dec-17 21:55 36.080588 -115.140600 134 2075ft 0kts
28-Dec-17 21:56 36.080588 -115.140600 134 2075ft 0kts
28-Dec-17 21:57 36.080588 -115.140601 134 2075ft 0kts
28-Dec-17 21:58 36.080900 -115.140926 136 2075ft 2kts
28-Dec-17 21:59 36.081383 -115.141076 232 2074ft 2kts
28-Dec-17 22:00 36.081534 -115.140882 224 2073ft 0kts
28-Dec-17 22:01 36.081534 -115.140882 224 2073ft 0kts
28-Dec-17 22:02 36.081534 -115.140882 224 2073ft 0kts
28-Dec-17 22:03 36.081371 -115.141077 224 2074ft 1kts
28-Dec-17 22:04 36.081089 -115.141411 222 2076ft 1kts
28-Dec-17 22:05 36.080258 -115.141614 180 2080ft 5kts
28-Dec-17 22:06 36.079064 -115.141646 181 2083ft 0kts
28-Dec-17 22:07 36.079064 -115.141646 181 2083ft 0kts
28-Dec-17 22:08 36.078978 -115.141649 181 2083ft 1kts
28-Dec-17 22:09 36.078231 -115.140001 90 2078ft 14kts
28-Dec-17 22:10 36.078249 -115.133779 89 2060ft 20kts
28-Dec-17 22:11 36.078234 -115.128246 89 2045ft 18kts
28-Dec-17 22:12 36.078147 -115.122594 121 2035ft 9kts
28-Dec-17 22:13 36.077567 -115.121716 130 2037ft 1kts
28-Dec-17 22:14 36.076409 -115.121848 262 2038ft 9kts
28-Dec-17 22:15 36.076377 -115.130578 269 2053ft 55kts
28-Dec-17 22:16 36.076419 -115.174452 269 2943ft 160kts
28-Dec-17 22:17 36.074457 -115.231480 251 3844ft 237kts
28-Dec-17 22:18 36.023655 -115.276577 201 6805ft 241kts
28-Dec-17 22:19 35.958417 -115.296844 165 9451ft 255kts
28-Dec-17 22:20 35.888950 -115.270026 156 11624ft 284kts
28-Dec-17 22:21 35.845592 -115.180373 104 13065ft 341kts
28-Dec-17 22:22 35.822213 -115.065107 87 15603ft 355kts
28-Dec-17 22:23 35.830944 -114.943259 81 18513ft 367kts
28-Dec-17 22:24 35.840384 -114.815702 81 21223ft 381kts
28-Dec-17 22:25 35.850170 -114.683690 81 23660ft 396kts
28-Dec-17 22:26 35.830862 -114.552349 130 25522ft 420kts
28-Dec-17 22:27 35.756559 -114.439929 123 27352ft 425kts
28-Dec-17 22:28 35.691216 -114.320962 121 29258ft 421kts
28-Dec-17 22:29 35.624048 -114.195054 121 29312ft 461kts
28-Dec-17 22:30 35.552200 -114.059471 121 29302ft 486kts
28-Dec-17 22:31 35.480340 -113.922995 120 29302ft 485kts
28-Dec-17 22:32 35.408309 -113.785203 121 29303ft 485kts
28-Dec-17 22:33 35.335831 -113.645890 120 29303ft 485kts
28-Dec-17 22:34 35.263945 -113.506472 120 29304ft 485kts
28-Dec-17 22:35 35.192736 -113.367805 119 29305ft 481kts
28-Dec-17 22:36 35.119837 -113.231012 122 29304ft 481kts
28-Dec-17 22:37 35.045416 -113.095519 122 29304ft 481kts
28-Dec-17 22:38 34.970183 -112.960952 122 29341ft 481kts
28-Dec-17 22:39 34.894971 -112.828134 123 29341ft 481kts
28-Dec-17 22:40 34.818337 -112.697995 123 29013ft 466kts
28-Dec-17 22:41 34.743408 -112.570625 123 27379ft 460kts
28-Dec-17 22:42 34.671265 -112.446682 123 25572ft 442kts
28-Dec-17 22:43 34.604078 -112.329566 123 23740ft 410kts
28-Dec-17 22:44 34.540674 -112.217767 123 21941ft 397kts
28-Dec-17 22:45 34.478937 -112.109377 123 20142ft 388kts
28-Dec-17 22:46 34.410060 -112.013080 148 18628ft 382kts
28-Dec-17 22:47 34.312223 -111.994655 196 17109ft 352kts
28-Dec-17 22:48 34.235278 -112.057745 225 15603ft 328kts
28-Dec-17 22:49 34.157889 -112.109939 199 14203ft 319kts
28-Dec-17 22:50 34.072848 -112.130633 165 12807ft 310kts
28-Dec-17 22:51 33.991972 -112.098786 160 11909ft 305kts
28-Dec-17 22:52 33.912620 -112.066495 160 11017ft 299kts
28-Dec-17 22:53 33.834543 -112.034790 160 10115ft 294kts
28-Dec-17 22:54 33.758336 -112.003912 159 9193ft 279kts
28-Dec-17 22:55 33.687677 -111.975370 159 8267ft 261kts
28-Dec-17 22:56 33.620435 -111.948204 159 7347ft 249kts
28-Dec-17 22:57 33.557496 -111.922792 159 7026ft 232kts
28-Dec-17 22:58 33.529042 -111.862107 92 6724ft 225kts
28-Dec-17 22:59 33.525666 -111.788760 114 5774ft 217kts
28-Dec-17 23:00 33.474217 -111.781152 230 5001ft 208kts
28-Dec-17 23:01 33.444153 -111.840523 243 4202ft 207kts
28-Dec-17 23:02 33.440694 -111.904529 271 3025ft 175kts
28-Dec-17 23:03 33.440778 -111.956308 270 1896ft 146kts
28-Dec-17 23:04 33.440773 -112.002839 270 1131ft 103kts
28-Dec-17 23:05 33.440118 -112.010916 210 1126ft 3kts
28-Dec-17 23:06 33.438802 -112.010319 146 1126ft 7kts
28-Dec-17 23:07 33.437925 -112.009838 106 1126ft 2kts
28-Dec-17 23:08 33.437869 -112.009411 101 1126ft 0kts
28-Dec-17 23:09 33.437853 -112.009344 108 1126ft 0kts
28-Dec-17 23:10 33.437853 -112.009344 108 1126ft 0kts
28-Dec-17 23:11 33.437853 -112.009344 108 1126ft 0kts
28-Dec-17 23:12 33.437853 -112.009344 108 1126ft 0kts
28-Dec-17 23:13 33.437853 -112.009344 108 1126ft 0kts

Navigation Log

Ident Type
Flight plan parsing failed, navigation log unavailable